WetterOnline ( https://www.wetteronline.de )

Wetter aktuell Schriesheim

Aktuelles Wetter: Mannheim (100m)

6-stündlich | Neueste Meldungen
Ortszeit Temperatur Wetter
Di, 15.06. 20:00 29.2° C leicht bewölkt
Di, 15.06. 14:00 29.3° C leicht bewölkt
Di, 15.06. 8:00 19.2° C leicht bewölkt
Di, 15.06. 2:00 16.0° C wolkig
Mo, 14.06. 20:00 27.0° C wolkenlos
Mo, 14.06. 14:00 25.9° C wolkenlos
Mo, 14.06. 8:00 18.2° C wolkenlos
Mo, 14.06. 2:00 15.0° C wolkenlos
Ortszeit Temperatur Wetter
Mi, 16.06. 1:00 18.9° C wolkig
Mi, 16.06. 0:50 18.9° C wolkig
Mi, 16.06. 0:40 19.4° C wolkig
Mi, 16.06. 0:30 19.6° C wolkig
Mi, 16.06. 0:20 19.6° C wolkig
Mi, 16.06. 0:10 20.1° C wolkig
Mi, 16.06. 0:00 21.1° C -
Di, 15.06. 23:30 23.1° C wolkig
Di, 15.06. 23:00 23.1° C wolkig
Di, 15.06. 22:30 23.1° C wolkig
Di, 15.06. 22:00 24.1° C wolkig
Ortszeit Relative Feuchte Sichtweite
Di, 15.06. 20:00 35% 55 km
Di, 15.06. 14:00 33% 50 km
Di, 15.06. 8:00 63% 45 km
Di, 15.06. 2:00 78% 50 km
Mo, 14.06. 20:00 39% 60 km
Mo, 14.06. 14:00 34% 60 km
Mo, 14.06. 8:00 60% 50 km
Mo, 14.06. 2:00 64% 50 km
Ortszeit Relative Feuchte Sichtweite
Mi, 16.06. 1:00 75% 40 km
Mi, 16.06. 0:50 75% -
Mi, 16.06. 0:40 74% -
Mi, 16.06. 0:30 74% 40 km
Mi, 16.06. 0:20 74% -
Mi, 16.06. 0:10 72% -
Mi, 16.06. 0:00 68% 40 km
Di, 15.06. 23:30 60% 45 km
Di, 15.06. 23:00 60% 45 km
Di, 15.06. 22:30 57% 45 km
Di, 15.06. 22:00 52% 50 km
Ortszeit Niederschlagsmenge Niederschlagsart
Di, 15.06. 20:00 0.0 l/m2 in 12 Std. -
Di, 15.06. 14:00 0.0 l/m2 in 6 Std. -
Di, 15.06. 8:00 0.0 l/m2 in 12 Std. -
Di, 15.06. 2:00 0.0 l/m2 in 6 Std. -
Mo, 14.06. 20:00 0.0 l/m2 in 12 Std. -
Mo, 14.06. 14:00 0.0 l/m2 in 6 Std. -
Mo, 14.06. 8:00 0.0 l/m2 in 12 Std. -
Mo, 14.06. 2:00 0.0 l/m2 in 6 Std. -
Ortszeit Niederschlagsmenge Niederschlagsart
Mi, 16.06. 1:00 0.0 l/m2 in 1 Std. -
Mi, 16.06. 0:50 keine Meldung -
Mi, 16.06. 0:40 keine Meldung -
Mi, 16.06. 0:30 0.0 l/m2 in 1 Std. -
Mi, 16.06. 0:20 keine Meldung -
Mi, 16.06. 0:10 keine Meldung -
Mi, 16.06. 0:00 0.0 l/m2 in 1 Std. -
Di, 15.06. 23:30 0.0 l/m2 in 1 Std. -
Di, 15.06. 23:00 0.0 l/m2 in 1 Std. -
Di, 15.06. 22:30 0.0 l/m2 in 1 Std. -
Di, 15.06. 22:00 0.0 l/m2 in 1 Std. -
Ortszeit Stärke Spitze Richtung
km/h Bft. km/h Grad Sektor
Di, 15.06. 20:00 9 2 24 20° N
Di, 15.06. 14:00 6 1 19 290° W
Di, 15.06. 8:00 4 1 11 310° NW
Di, 15.06. 2:00 2 1 15 30° NO
Mo, 14.06. 20:00 9 2 20 330° NW
Mo, 14.06. 14:00 6 1 24 140° SO
Mo, 14.06. 8:00 7 2 11 40° NO
Mo, 14.06. 2:00 4 1 18 30° NO
Ortszeit Stärke Spitze Richtung
km/h Bft. km/h Grad Sektor
Mi, 16.06. 1:00 2 1 7 340° N
Mi, 16.06. 0:50 2 1 - 340° N
Mi, 16.06. 0:40 4 1 - 10° N
Mi, 16.06. 0:30 4 1 7 10° N
Mi, 16.06. 0:20 4 1 - 10° N
Mi, 16.06. 0:10 4 1 - 360° N
Mi, 16.06. 0:00 4 1 14 20° N
Di, 15.06. 23:30 9 2 13 20° N
Di, 15.06. 23:00 7 2 11 20° N
Di, 15.06. 22:30 7 2 11 350° N
Di, 15.06. 22:00 7 2 11 350° N
Ortszeit Untergrenze Bedeckung Gattung
total tief tief mittel hoch
Di, 15.06. 20:00 9000 m 7/8 0/8 - - -
Di, 15.06. 14:00 7500 m 6/8 0/8 - - -
Di, 15.06. 8:00 9000 m 7/8 0/8 - - -
Di, 15.06. 2:00 12000 m 8/8 0/8 - - -
Mo, 14.06. 20:00 - 0/8 0/8 - - -
Mo, 14.06. 14:00 - 0/8 0/8 - - -
Mo, 14.06. 8:00 - 0/8 0/8 - - -
Mo, 14.06. 2:00 - 0/8 0/8 - - -
Ortszeit Bedeckungsgrad in Achtel und Wolkenuntergrenze
Mi, 16.06. 1:00 5(9000m) 7(10500m) 8(12000m)
Mi, 16.06. 0:50 5(9000m) 7(10500m) 8(12000m)
Mi, 16.06. 0:40 5(9000m) 8(10500m) 8(12000m)
Mi, 16.06. 0:30 7(9000m) 7(10500m) 7(12000m)
Mi, 16.06. 0:20 7(9000m) 7(10500m) 7(12000m)
Mi, 16.06. 0:10 7(9000m) 8(10500m)
Mi, 16.06. 0:00 -
Di, 15.06. 23:30 4(8700m) 7(9000m) 8(9000m)
Di, 15.06. 23:00 5(9000m) 8(9000m)
Di, 15.06. 22:30 8(9000m) 8(10500m) 8(12000m)
Di, 15.06. 22:00 1(9000m) 8(9000m) 8(12000m)
Ortszeit Luftdruck NN (hPa) Tendenz (hPa in 3 Std.)
Di, 15.06. 20:00 1016 - 0,7
Di, 15.06. 14:00 1017 - 0,8
Di, 15.06. 8:00 1019 + 0,8
Di, 15.06. 2:00 1018 - 0,1
Mo, 14.06. 20:00 1017 - 1,0
Mo, 14.06. 14:00 1020 - 2,2
Mo, 14.06. 8:00 1023 - 0,7
Mo, 14.06. 2:00 1024 - 0,7
Ortszeit Luftdruck NN (hPa) Tendenz (hPa in 3 Std.)
Mi, 16.06. 1:00 1016 0,0
Mi, 16.06. 0:50 1016 keine Meldung
Mi, 16.06. 0:40 1016 keine Meldung
Mi, 16.06. 0:30 1016 + 0,3
Mi, 16.06. 0:20 1016 keine Meldung
Mi, 16.06. 0:10 1016 keine Meldung
Mi, 16.06. 0:00 1016 + 0,4
Di, 15.06. 23:30 1016 + 0,3
Di, 15.06. 23:00 1016 + 0,4
Di, 15.06. 22:30 1016 + 0,2
Di, 15.06. 22:00 1016 0,0
Ortszeit Schneehöhe (cm)
Di, 15.06. 20:00 -
Di, 15.06. 14:00 -
Di, 15.06. 8:00 -
Di, 15.06. 2:00 -
Mo, 14.06. 20:00 -
Mo, 14.06. 14:00 -
Mo, 14.06. 8:00 -
Mo, 14.06. 2:00 -
Ortszeit Schneehöhe (cm)
Mi, 16.06. 1:00 -
Mi, 16.06. 0:50 -
Mi, 16.06. 0:40 -
Mi, 16.06. 0:30 -
Mi, 16.06. 0:20 -
Mi, 16.06. 0:10 -
Mi, 16.06. 0:00 -
Di, 15.06. 23:30 -
Di, 15.06. 23:00 -
Di, 15.06. 22:30 -
Di, 15.06. 22:00 -
Link zu dieser Seite / Seite empfehlen

Das Wetter in ...